createdAt,value
2018-09-05T00:00:16.253Z,14.55
2018-09-05T00:02:44.595Z,14.41
2018-09-05T00:05:12.894Z,14.26
2018-09-05T00:07:41.236Z,14.17
2018-09-05T00:10:09.743Z,14.32
2018-09-05T00:12:38.118Z,14.49
2018-09-05T00:15:06.939Z,14.51
2018-09-05T00:17:35.287Z,14.55
2018-09-05T00:20:03.639Z,14.43
2018-09-05T00:22:31.988Z,14.03
2018-09-05T00:25:00.359Z,13.76
2018-09-05T00:27:28.676Z,13.82
2018-09-05T00:29:57.189Z,13.84
2018-09-05T00:32:25.563Z,13.85
2018-09-05T00:34:53.898Z,13.84
2018-09-05T00:37:22.429Z,13.63
2018-09-05T00:39:50.804Z,13.72
2018-09-05T00:42:19.254Z,13.61
2018-09-05T00:44:47.710Z,13.80
2018-09-05T00:47:16.103Z,13.82
2018-09-05T00:49:44.538Z,13.81
2018-09-05T00:52:12.850Z,13.97
2018-09-05T00:54:41.251Z,13.82
2018-09-05T00:57:09.611Z,13.82
2018-09-05T00:59:38.007Z,13.60
2018-09-05T01:02:06.378Z,13.62
2018-09-05T01:04:34.856Z,13.50
2018-09-05T01:07:34.443Z,13.66
2018-09-05T01:10:02.814Z,13.74
2018-09-05T01:12:32.032Z,13.66
2018-09-05T01:15:00.474Z,13.68
2018-09-05T01:17:29.128Z,13.23
2018-09-05T01:19:57.521Z,13.02
2018-09-05T01:22:25.975Z,13.07
2018-09-05T01:24:54.426Z,13.18
2018-09-05T01:27:22.854Z,13.16
2018-09-05T01:29:51.161Z,13.21
2018-09-05T01:32:19.514Z,13.21
2018-09-05T01:34:47.945Z,13.46
2018-09-05T01:37:16.287Z,13.35
2018-09-05T01:39:44.613Z,13.10
2018-09-05T01:42:12.942Z,13.34
2018-09-05T01:44:41.451Z,13.25
2018-09-05T01:47:09.766Z,13.48
2018-09-05T01:49:38.119Z,13.23
2018-09-05T01:52:06.486Z,13.38
2018-09-05T01:54:34.803Z,13.38
2018-09-05T01:57:03.138Z,13.30
2018-09-05T01:59:31.479Z,13.19
2018-09-05T02:01:59.983Z,13.20
2018-09-05T02:04:28.434Z,13.28
2018-09-05T02:06:56.763Z,13.28
2018-09-05T02:09:25.175Z,13.18
2018-09-05T02:11:53.535Z,13.24
2018-09-05T02:14:21.862Z,13.25
2018-09-05T02:16:50.199Z,13.36
2018-09-05T02:19:18.617Z,13.13
2018-09-05T02:21:46.950Z,12.88
2018-09-05T02:24:15.371Z,13.09
2018-09-05T02:26:43.867Z,13.06
2018-09-05T02:29:12.227Z,13.13
2018-09-05T02:31:40.635Z,13.09
2018-09-05T02:34:09.047Z,12.79
2018-09-05T02:36:37.375Z,12.62
2018-09-05T02:39:08.313Z,12.51
2018-09-05T02:41:36.690Z,12.57
2018-09-05T02:44:10.363Z,12.81
2018-09-05T02:46:38.659Z,12.69
2018-09-05T02:49:07.024Z,12.69
2018-09-05T02:51:35.343Z,12.74
2018-09-05T02:54:03.983Z,12.75
2018-09-05T02:56:32.275Z,12.90
2018-09-05T02:59:00.593Z,12.61
2018-09-05T03:01:28.954Z,12.61
2018-09-05T03:03:57.317Z,12.70
2018-09-05T03:06:25.650Z,12.63
2018-09-05T03:08:54.025Z,12.25
2018-09-05T03:11:22.346Z,12.12
2018-09-05T03:13:50.695Z,12.18
2018-09-05T03:16:19.015Z,12.43
2018-09-05T03:18:47.425Z,12.59
2018-09-05T03:21:15.768Z,12.58
2018-09-05T03:23:44.060Z,12.41
2018-09-05T03:26:12.401Z,12.13
2018-09-05T03:28:40.765Z,12.33
2018-09-05T03:31:09.281Z,12.03
2018-09-05T03:33:37.576Z,11.98
2018-09-05T03:36:05.925Z,11.92
2018-09-05T03:38:34.293Z,11.90
2018-09-05T03:41:02.692Z,12.14
2018-09-05T03:43:31.008Z,11.96
2018-09-05T03:45:59.361Z,12.01
2018-09-05T03:48:27.737Z,12.22
2018-09-05T03:50:56.078Z,12.14
2018-09-05T03:53:24.821Z,12.26
2018-09-05T03:55:53.952Z,12.31
2018-09-05T03:58:22.273Z,12.23
2018-09-05T04:00:50.643Z,12.17
2018-09-05T04:03:18.939Z,11.82
2018-09-05T04:05:47.247Z,11.65
2018-09-05T04:08:15.590Z,11.56
2018-09-05T04:10:43.940Z,11.72
2018-09-05T04:13:12.275Z,11.93
2018-09-05T04:15:40.632Z,11.97
2018-09-05T04:18:08.996Z,11.99
2018-09-05T04:20:37.358Z,12.11
2018-09-05T04:23:09.309Z,11.96
2018-09-05T04:25:40.313Z,11.80
2018-09-05T04:28:10.991Z,11.72
2018-09-05T04:30:42.098Z,11.53
2018-09-05T04:33:14.099Z,11.38
2018-09-05T04:35:45.100Z,11.40
2018-09-05T04:38:25.257Z,11.32
2018-09-05T04:40:57.798Z,11.39
2018-09-05T04:43:31.386Z,11.52
2018-09-05T04:46:02.962Z,11.38
2018-09-05T04:48:34.234Z,11.28
2018-09-05T04:51:06.128Z,11.28
2018-09-05T04:53:36.805Z,11.59
2018-09-05T04:56:09.285Z,11.73
2018-09-05T04:58:41.011Z,11.86
2018-09-05T05:01:11.465Z,11.89
2018-09-05T05:03:42.397Z,11.90
2018-09-05T05:06:14.386Z,11.66
2018-09-05T05:08:47.281Z,11.52
2018-09-05T05:11:21.461Z,11.52
2018-09-05T05:13:54.691Z,11.48
2018-09-05T05:16:28.069Z,11.75
2018-09-05T05:18:57.250Z,11.94
2018-09-05T05:21:26.200Z,11.84
2018-09-05T05:24:24.343Z,12.16
2018-09-05T05:27:19.541Z,12.15
2018-09-05T05:29:47.919Z,12.42
2018-09-05T05:32:16.276Z,12.49
2018-09-05T05:34:44.598Z,12.35
2018-09-05T05:37:12.987Z,12.32
2018-09-05T05:39:42.047Z,12.25
2018-09-05T05:42:10.383Z,12.18
2018-09-05T05:44:38.687Z,12.35
2018-09-05T05:47:07.026Z,12.48
2018-09-05T05:49:35.399Z,12.57
2018-09-05T05:52:03.852Z,12.70
2018-09-05T05:54:32.264Z,12.73
2018-09-05T05:57:00.654Z,12.88
2018-09-05T05:59:28.974Z,13.02
2018-09-05T06:01:57.331Z,13.09
2018-09-05T06:04:25.631Z,13.16
2018-09-05T06:06:54.055Z,13.21
2018-09-05T06:09:22.378Z,13.31
2018-09-05T06:11:50.727Z,13.49
2018-09-05T06:14:19.042Z,13.61
2018-09-05T06:16:47.419Z,13.75
2018-09-05T06:19:15.752Z,13.86
2018-09-05T06:21:44.073Z,13.98
2018-09-05T06:24:12.426Z,14.14
2018-09-05T06:26:40.864Z,14.28
2018-09-05T06:29:09.291Z,14.39
2018-09-05T06:31:37.804Z,14.51
2018-09-05T06:34:06.187Z,14.61
2018-09-05T06:36:34.595Z,14.70
2018-09-05T06:39:02.940Z,14.83
2018-09-05T06:42:05.339Z,14.97
2018-09-05T06:44:33.675Z,15.04
2018-09-05T06:47:02.029Z,15.20
2018-09-05T06:49:30.428Z,15.33
2018-09-05T06:51:58.832Z,15.46
2018-09-05T06:54:27.202Z,15.74
2018-09-05T06:56:55.629Z,15.87
2018-09-05T06:59:23.903Z,15.89
2018-09-05T07:01:52.228Z,15.90
2018-09-05T07:04:20.543Z,15.88
2018-09-05T07:06:49.033Z,15.88
2018-09-05T07:09:17.631Z,15.96
2018-09-05T07:11:46.020Z,15.99
2018-09-05T07:14:14.604Z,16.18
2018-09-05T07:16:42.886Z,16.20
2018-09-05T07:19:12.488Z,16.25
2018-09-05T07:21:40.845Z,16.36
2018-09-05T07:24:09.153Z,16.46
2018-09-05T07:26:37.950Z,16.50
2018-09-05T07:29:06.589Z,16.64
2018-09-05T07:31:34.930Z,16.73
2018-09-05T07:34:03.323Z,16.75
2018-09-05T07:36:31.716Z,16.86
2018-09-05T07:39:00.144Z,16.80
2018-09-05T07:41:28.525Z,16.94
2018-09-05T07:43:56.836Z,17.06
2018-09-05T07:46:25.163Z,17.05
2018-09-05T07:48:53.511Z,17.17
2018-09-05T07:51:21.816Z,17.45
2018-09-05T07:53:50.251Z,17.44
2018-09-05T07:56:18.803Z,17.49
2018-09-05T07:58:47.271Z,17.64
2018-09-05T08:01:15.605Z,17.60
2018-09-05T08:03:44.199Z,17.63
2018-09-05T08:06:12.643Z,17.72
2018-09-05T08:08:41.039Z,17.82
2018-09-05T08:11:09.325Z,17.95
2018-09-05T08:13:37.867Z,18.00
2018-09-05T08:16:06.543Z,18.00
2018-09-05T08:18:34.868Z,18.04
2018-09-05T08:21:03.197Z,18.15
2018-09-05T08:23:31.539Z,18.22
2018-09-05T08:25:59.823Z,18.27
2018-09-05T08:28:28.194Z,18.27
2018-09-05T08:30:56.550Z,18.36
2018-09-05T08:33:24.844Z,18.39
2018-09-05T08:35:53.364Z,18.44
2018-09-05T08:38:21.613Z,18.57
2018-09-05T08:40:50.765Z,18.70
2018-09-05T08:43:19.219Z,18.71
2018-09-05T08:45:47.866Z,18.84
2018-09-05T08:48:16.067Z,18.89
2018-09-05T08:50:44.325Z,18.96
2018-09-05T08:53:12.766Z,19.00
2018-09-05T08:55:41.103Z,19.12
2018-09-05T08:58:09.490Z,19.20
2018-09-05T09:00:37.886Z,19.31
2018-09-05T09:03:06.284Z,19.26
2018-09-05T09:05:34.724Z,19.31
2018-09-05T09:08:03.096Z,19.50
2018-09-05T09:10:31.449Z,19.59
2018-09-05T09:12:59.759Z,19.65
2018-09-05T09:15:28.038Z,19.68
2018-09-05T09:17:56.353Z,19.64
2018-09-05T09:20:24.667Z,19.79
2018-09-05T09:22:53.074Z,19.80
2018-09-05T09:25:21.407Z,19.86
2018-09-05T09:27:49.791Z,20.06
2018-09-05T09:30:18.103Z,20.16
2018-09-05T09:32:46.385Z,20.26
2018-09-05T09:35:14.759Z,20.27
2018-09-05T09:37:43.049Z,20.29
2018-09-05T09:40:11.450Z,20.29
2018-09-05T09:42:39.734Z,20.38
2018-09-05T09:45:08.070Z,20.45
2018-09-05T09:47:36.383Z,20.60
2018-09-05T09:50:04.799Z,20.71
2018-09-05T09:52:37.369Z,20.74
2018-09-05T09:55:07.049Z,21.09
2018-09-05T09:57:35.403Z,20.92
2018-09-05T10:00:03.769Z,20.85
2018-09-05T10:02:37.635Z,21.15
2018-09-05T10:05:11.435Z,21.14
2018-09-05T10:07:45.118Z,21.28
2018-09-05T10:10:19.093Z,21.42
2018-09-05T10:12:49.907Z,21.41
2018-09-05T10:15:23.456Z,21.31
2018-09-05T10:17:57.051Z,21.49
2018-09-05T10:20:25.430Z,21.56
2018-09-05T10:22:53.820Z,21.83
2018-09-05T10:25:22.158Z,21.71
2018-09-05T10:27:50.468Z,21.86
2018-09-05T10:30:18.783Z,21.87
2018-09-05T10:32:47.135Z,22.06
2018-09-05T10:35:15.436Z,22.08
2018-09-05T10:37:43.746Z,21.85
2018-09-05T10:40:12.042Z,22.07
2018-09-05T10:42:40.366Z,22.16
2018-09-05T10:45:08.665Z,22.10
2018-09-05T10:47:36.959Z,22.25
2018-09-05T10:50:05.255Z,22.17
2018-09-05T10:52:33.565Z,22.26
2018-09-05T10:55:01.882Z,22.30
2018-09-05T10:57:30.220Z,22.18
2018-09-05T10:59:58.652Z,22.42
2018-09-05T11:02:27.054Z,22.41
2018-09-05T11:04:55.363Z,22.67
2018-09-05T11:07:23.709Z,22.89
2018-09-05T11:09:52.032Z,22.58
2018-09-05T11:12:20.348Z,22.42
2018-09-05T11:14:48.713Z,22.42
2018-09-05T11:17:17.018Z,22.71
2018-09-05T11:19:45.390Z,22.81
2018-09-05T11:22:13.730Z,23.03
2018-09-05T11:24:42.068Z,23.05
2018-09-05T11:27:10.511Z,23.13
2018-09-05T11:29:39.072Z,23.01
2018-09-05T11:32:08.109Z,23.10
2018-09-05T11:34:36.640Z,23.13
2018-09-05T11:37:05.308Z,23.29
2018-09-05T11:39:33.790Z,23.25
2018-09-05T11:42:02.203Z,23.23
2018-09-05T11:44:30.575Z,23.34
2018-09-05T11:46:58.888Z,23.43
2018-09-05T11:49:27.311Z,23.43
2018-09-05T11:51:55.641Z,23.55
2018-09-05T11:54:24.086Z,23.61
2018-09-05T11:56:52.546Z,23.63
2018-09-05T11:59:20.958Z,23.87
2018-09-05T12:01:49.298Z,23.40
2018-09-05T12:04:17.645Z,23.68
2018-09-05T12:06:46.034Z,23.80
2018-09-05T12:09:14.454Z,23.70
2018-09-05T12:11:42.963Z,23.79
2018-09-05T12:14:11.496Z,23.91
2018-09-05T12:16:39.871Z,23.87
2018-09-05T12:19:08.535Z,23.78
2018-09-05T12:21:37.245Z,23.81
2018-09-05T12:24:05.578Z,23.92
2018-09-05T12:26:34.081Z,24.24
2018-09-05T12:29:04.287Z,24.31
2018-09-05T12:31:32.890Z,24.17
2018-09-05T12:34:01.227Z,24.14
2018-09-05T12:36:29.717Z,24.22
2018-09-05T12:38:58.062Z,24.20
2018-09-05T12:41:26.386Z,24.33
2018-09-05T12:43:54.794Z,24.27
2018-09-05T12:46:23.157Z,23.81
2018-09-05T12:48:51.460Z,24.03
2018-09-05T12:51:19.834Z,24.17
2018-09-05T12:53:48.164Z,24.38
2018-09-05T12:56:16.624Z,24.43
2018-09-05T12:58:44.945Z,24.46
2018-09-05T13:01:13.352Z,24.41
2018-09-05T13:03:41.762Z,24.63
2018-09-05T13:06:10.126Z,24.65
2018-09-05T13:08:38.454Z,24.72
2018-09-05T13:11:06.855Z,24.39
2018-09-05T13:13:35.167Z,24.39
2018-09-05T13:16:03.577Z,24.09
2018-09-05T13:18:31.899Z,24.10
2018-09-05T13:21:00.901Z,24.40
2018-09-05T13:23:29.258Z,24.32
2018-09-05T13:25:57.539Z,24.27
2018-09-05T13:28:25.890Z,24.39
2018-09-05T13:30:54.277Z,24.43
2018-09-05T13:33:22.706Z,24.31
2018-09-05T13:35:51.078Z,24.42
2018-09-05T13:38:19.386Z,24.59
2018-09-05T13:40:47.745Z,24.75
2018-09-05T13:43:16.094Z,24.59
2018-09-05T13:45:44.471Z,24.47
2018-09-05T13:48:12.897Z,24.52
2018-09-05T13:50:41.417Z,24.66
2018-09-05T13:53:09.927Z,24.80
2018-09-05T13:55:38.426Z,24.70
2018-09-05T13:58:06.860Z,24.89
2018-09-05T14:00:35.407Z,24.80
2018-09-05T14:03:03.746Z,24.77
2018-09-05T14:05:32.124Z,24.60
2018-09-05T14:08:00.880Z,24.60
2018-09-05T14:10:29.351Z,24.57
2018-09-05T14:12:57.657Z,24.59
2018-09-05T14:15:26.231Z,24.62
2018-09-05T14:17:54.825Z,24.52
2018-09-05T14:20:23.312Z,24.53
2018-09-05T14:22:51.777Z,24.52
2018-09-05T14:25:20.338Z,24.45
2018-09-05T14:27:48.712Z,24.33
2018-09-05T14:30:17.328Z,24.30
2018-09-05T14:32:45.687Z,24.49
2018-09-05T14:35:14.400Z,24.49
2018-09-05T14:37:42.730Z,24.45
2018-09-05T14:40:11.284Z,24.56
2018-09-05T14:42:39.490Z,24.73
2018-09-05T14:45:08.026Z,24.57
2018-09-05T14:47:36.461Z,24.58
2018-09-05T14:50:05.220Z,24.55
2018-09-05T14:52:33.718Z,24.76
2018-09-05T14:55:02.310Z,24.68
2018-09-05T14:57:31.005Z,24.73
2018-09-05T14:59:59.482Z,24.67
2018-09-05T15:02:27.894Z,24.55
2018-09-05T15:04:56.534Z,24.56
2018-09-05T15:07:25.126Z,24.54
2018-09-05T15:09:53.660Z,24.48
2018-09-05T15:12:22.102Z,24.58
2018-09-05T15:14:50.466Z,24.57
2018-09-05T15:17:18.966Z,24.59
2018-09-05T15:19:47.407Z,24.55
2018-09-05T15:22:15.962Z,24.55
2018-09-05T15:24:44.270Z,24.55
2018-09-05T15:27:12.549Z,24.38
2018-09-05T15:29:40.952Z,24.47
2018-09-05T15:32:09.490Z,24.41
2018-09-05T15:34:37.998Z,24.47
2018-09-05T15:37:06.420Z,24.40
2018-09-05T15:39:34.869Z,24.35
2018-09-05T15:42:03.418Z,24.38
2018-09-05T15:44:31.880Z,24.42
2018-09-05T15:47:00.262Z,24.53
2018-09-05T15:49:28.668Z,24.45
2018-09-05T15:51:57.146Z,24.39
2018-09-05T15:54:26.698Z,24.38
2018-09-05T15:56:55.068Z,24.34
2018-09-05T15:59:24.077Z,24.33
2018-09-05T16:01:53.408Z,24.19
2018-09-05T16:04:21.714Z,24.10
2018-09-05T16:06:50.066Z,24.12
2018-09-05T16:09:18.409Z,24.06
2018-09-05T16:11:46.876Z,24.10
2018-09-05T16:14:15.222Z,24.03
2018-09-05T16:16:43.688Z,23.99
2018-09-05T16:19:11.963Z,24.02
2018-09-05T16:21:40.365Z,24.07
2018-09-05T16:24:08.762Z,24.00
2018-09-05T16:26:37.114Z,24.04
2018-09-05T16:29:05.458Z,23.88
2018-09-05T16:31:35.430Z,23.89
2018-09-05T16:34:04.491Z,23.80
2018-09-05T16:36:32.903Z,23.77
2018-09-05T16:39:03.443Z,23.73
2018-09-05T16:41:32.118Z,23.62
2018-09-05T16:44:01.731Z,23.41
2018-09-05T16:46:31.767Z,23.23
2018-09-05T16:49:02.683Z,23.06
2018-09-05T16:51:32.680Z,23.05
2018-09-05T16:54:03.282Z,23.04
2018-09-05T16:56:34.799Z,23.11
2018-09-05T16:59:06.046Z,22.87
2018-09-05T17:01:38.403Z,22.66
2018-09-05T17:04:10.268Z,22.51
2018-09-05T17:06:40.908Z,22.14
2018-09-05T17:09:13.134Z,22.05
2018-09-05T17:11:43.879Z,21.86
2018-09-05T17:14:15.646Z,21.77
2018-09-05T17:16:46.200Z,21.48
2018-09-05T17:19:18.010Z,21.51
2018-09-05T17:21:48.089Z,21.40
2018-09-05T17:24:20.491Z,21.31
2018-09-05T17:26:51.136Z,21.18
2018-09-05T17:29:21.101Z,21.01
2018-09-05T17:31:52.442Z,20.88
2018-09-05T17:34:23.995Z,20.78
2018-09-05T17:36:56.875Z,20.59
2018-09-05T17:39:29.685Z,20.67
2018-09-05T17:42:05.209Z,20.45
2018-09-05T17:44:33.798Z,20.32
2018-09-05T17:47:02.404Z,20.17
2018-09-05T17:49:30.804Z,20.18
2018-09-05T17:51:59.132Z,20.11
2018-09-05T17:54:29.278Z,20.03
2018-09-05T17:56:57.654Z,20.02
2018-09-05T17:59:26.075Z,20.00
2018-09-05T18:01:54.512Z,19.83
2018-09-05T18:04:27.091Z,19.82
2018-09-05T18:06:57.599Z,19.81
2018-09-05T18:09:31.400Z,19.69
2018-09-05T18:15:01.438Z,19.59
2018-09-05T18:17:34.851Z,19.65
2018-09-05T18:20:05.505Z,19.60
2018-09-05T18:22:35.808Z,19.56
2018-09-05T18:25:07.184Z,19.36
2018-09-05T18:27:37.876Z,19.24
2018-09-05T18:30:09.875Z,19.08
2018-09-05T18:32:41.151Z,18.93
2018-09-05T18:35:11.595Z,18.94
2018-09-05T18:37:41.218Z,18.90
2018-09-05T18:40:12.526Z,18.78
2018-09-05T18:42:42.613Z,18.62
2018-09-05T18:45:13.381Z,18.58
2018-09-05T18:47:43.866Z,18.53
2018-09-05T18:50:15.958Z,18.43
2018-09-05T18:52:47.273Z,18.29
2018-09-05T18:55:17.952Z,18.29
2018-09-05T18:57:49.413Z,18.29
2018-09-05T19:00:20.059Z,18.20
2018-09-05T19:02:50.846Z,18.20
2018-09-05T19:05:20.954Z,18.12
2018-09-05T19:07:53.206Z,18.09
2018-09-05T19:10:23.488Z,18.03
2018-09-05T19:12:55.022Z,17.89
2018-09-05T19:15:26.298Z,17.75
2018-09-05T19:17:57.269Z,17.79
2018-09-05T19:20:28.374Z,17.70
2018-09-05T19:22:59.438Z,17.68
2018-09-05T19:25:30.768Z,17.56
2018-09-05T19:28:01.036Z,17.55
2018-09-05T19:30:32.131Z,17.64
2018-09-05T19:33:01.968Z,17.55
2018-09-05T19:35:32.114Z,17.47
2018-09-05T19:38:03.166Z,17.54
2018-09-05T19:40:34.142Z,17.31
2018-09-05T19:43:05.500Z,17.26
2018-09-05T19:45:36.866Z,17.20
2018-09-05T19:48:07.705Z,17.11
2018-09-05T19:50:39.444Z,17.13
2018-09-05T19:53:11.139Z,17.04
2018-09-05T19:55:43.996Z,17.00
2018-09-05T19:58:16.498Z,16.88
2018-09-05T20:00:46.972Z,17.03
2018-09-05T20:03:18.295Z,16.76
2018-09-05T20:05:49.044Z,16.75
2018-09-05T20:08:19.858Z,16.71
2018-09-05T20:10:53.248Z,16.74
2018-09-05T20:13:25.564Z,16.52
2018-09-05T20:15:59.483Z,16.43
2018-09-05T20:18:35.495Z,16.48
2018-09-05T20:21:06.140Z,16.52
2018-09-05T20:23:35.399Z,16.70
2018-09-05T20:26:03.974Z,16.57
2018-09-05T20:28:32.568Z,16.40
2018-09-05T20:31:01.057Z,16.29
2018-09-05T20:33:29.958Z,16.34
2018-09-05T20:35:58.503Z,16.31
2018-09-05T20:38:26.956Z,16.23
2018-09-05T20:40:55.237Z,16.05
2018-09-05T20:43:23.961Z,16.24
2018-09-05T20:45:52.350Z,16.14
2018-09-05T20:48:20.843Z,16.28
2018-09-05T20:50:49.193Z,16.10
2018-09-05T20:53:18.939Z,16.14
2018-09-05T20:55:47.277Z,16.17
2018-09-05T20:58:15.658Z,15.83
2018-09-05T21:00:43.966Z,15.73
2018-09-05T21:03:12.737Z,15.51
2018-09-05T21:05:41.071Z,15.61
2018-09-05T21:08:10.080Z,15.60
2018-09-05T21:10:38.758Z,15.60
2018-09-05T21:13:07.057Z,15.79
2018-09-05T21:15:35.390Z,15.62
2018-09-05T21:18:03.775Z,15.55
2018-09-05T21:20:32.062Z,15.37
2018-09-05T21:23:00.799Z,15.13
2018-09-05T21:25:29.426Z,14.98
2018-09-05T21:27:57.768Z,15.15
2018-09-05T21:30:26.157Z,15.18
2018-09-05T21:32:54.505Z,15.24
2018-09-05T21:35:22.860Z,14.98
2018-09-05T21:37:51.221Z,14.85
2018-09-05T21:40:19.555Z,14.77
2018-09-05T21:42:47.961Z,14.74
2018-09-05T21:45:16.286Z,14.69
2018-09-05T21:47:44.578Z,14.87
2018-09-05T21:50:12.915Z,14.90
2018-09-05T21:52:41.295Z,14.99
2018-09-05T21:55:09.726Z,15.09
2018-09-05T21:57:38.082Z,14.97
2018-09-05T22:00:08.526Z,14.90
2018-09-05T22:02:36.918Z,14.88
2018-09-05T22:05:05.418Z,14.60
2018-09-05T22:07:33.735Z,14.61
2018-09-05T22:10:02.134Z,14.73
2018-09-05T22:12:30.529Z,14.49
2018-09-05T22:14:58.864Z,14.73
2018-09-05T22:17:27.190Z,14.54
2018-09-05T22:19:55.588Z,14.56
2018-09-05T22:22:23.838Z,14.79
2018-09-05T22:24:52.153Z,14.64
2018-09-05T22:27:20.444Z,14.39
2018-09-05T22:29:48.708Z,14.37
2018-09-05T22:32:17.063Z,14.57
2018-09-05T22:34:45.344Z,14.33
2018-09-05T22:37:13.592Z,14.37
2018-09-05T22:39:41.883Z,14.49
2018-09-05T22:42:12.336Z,14.43
2018-09-05T22:44:52.558Z,14.15
2018-09-05T22:47:32.185Z,14.04
2018-09-05T22:50:17.192Z,14.28
2018-09-05T22:53:14.728Z,14.34
2018-09-05T22:58:02.694Z,14.17
2018-09-05T23:00:45.690Z,13.69
2018-09-05T23:03:24.395Z,13.51
2018-09-05T23:08:08.794Z,13.47
2018-09-05T23:10:48.433Z,13.58
2018-09-05T23:14:26.592Z,13.87
2018-09-05T23:19:42.006Z,13.95
2018-09-05T23:22:10.285Z,13.38
2018-09-05T23:24:38.588Z,13.30
2018-09-05T23:27:06.919Z,13.42
2018-09-05T23:29:35.169Z,13.65
2018-09-05T23:32:03.462Z,13.73
2018-09-05T23:34:31.720Z,13.79
2018-09-05T23:37:00.062Z,13.61
2018-09-05T23:39:28.394Z,13.42
2018-09-05T23:41:56.718Z,13.28
2018-09-05T23:44:24.993Z,13.22
2018-09-05T23:46:53.314Z,13.14
2018-09-05T23:49:21.574Z,13.05
2018-09-05T23:51:49.843Z,13.09
2018-09-05T23:54:18.211Z,13.06
2018-09-05T23:56:46.501Z,13.14
2018-09-05T23:59:14.793Z,13.24
